Time;durP1;ratioP1;P1;durP2;ratioP2;P2;SDS_P1;SDS_P2;PMS_P1;PMS_P2;Temp;Humidity;BMP_temperature;BMP_pressure;BME280_temperature;BME280_humidity;BME280_pressure;Samples;Min_cycle;Max_cycle;Signal;HPM_P1;HPM_P2
2022/06/10 00:00:57;;;;;;;16.55;14.27;;;25.60;74.20;;;;;;5053900;28;20021;-85
2022/06/10 00:03:25;;;;;;;16.52;14.30;;;25.60;73.50;;;;;;5053036;28;20051;-88
2022/06/10 00:05:54;;;;;;;14.48;12.98;;;25.50;73.90;;;;;;5054654;28;20017;-79
2022/06/10 00:08:24;;;;;;;15.13;13.45;;;25.50;74.30;;;;;;5053363;28;20039;-83
2022/06/10 00:10:55;;;;;;;17.55;14.45;;;25.50;74.10;;;;;;5053187;28;20036;-80
2022/06/10 00:13:23;;;;;;;15.98;13.60;;;25.00;75.20;;;;;;5053059;28;20087;-81
2022/06/10 00:15:49;;;;;;;16.58;13.95;;;24.90;75.60;;;;;;5051474;28;20017;-81
2022/06/10 00:18:16;;;;;;;15.38;12.68;;;24.90;76.00;;;;;;5053688;28;20108;-79
2022/06/10 00:20:43;;;;;;;15.63;13.57;;;24.90;76.00;;;;;;5054622;28;20373;-87
2022/06/10 00:23:09;;;;;;;16.58;14.05;;;25.00;75.40;;;;;;5049495;28;20026;-83
2022/06/10 00:25:36;;;;;;;17.17;13.10;;;25.00;75.50;;;;;;5048817;28;20029;-87
2022/06/10 00:28:05;;;;;;;19.15;13.55;;;24.90;75.50;;;;;;5039038;28;20013;-80
2022/06/10 00:30:31;;;;;;;16.73;13.70;;;25.00;75.10;;;;;;5050509;28;20084;-76
2022/06/10 00:32:58;;;;;;;16.00;13.27;;;24.80;76.30;;;;;;5052467;28;20125;-84
2022/06/10 00:35:26;;;;;;;16.10;13.75;;;25.00;75.10;;;;;;5052195;28;20020;-79
2022/06/10 00:37:52;;;;;;;17.10;12.90;;;25.00;75.60;;;;;;5054073;28;20021;-80
2022/06/10 00:40:46;;;;;;;17.38;14.43;;;25.20;74.80;;;;;;5052306;28;20025;-84
2022/06/10 00:43:16;;;;;;;16.65;13.82;;;25.40;74.50;;;;;;5050973;28;20024;-87
2022/06/10 00:46:00;;;;;;;18.38;13.77;;;25.50;74.30;;;;;;5052128;28;20371;-84
2022/06/10 00:48:26;;;;;;;15.93;14.13;;;25.30;74.20;;;;;;5051466;28;20049;-81
2022/06/10 00:50:52;;;;;;;19.25;14.48;;;25.10;74.80;;;;;;5053398;28;20021;-84
2022/06/10 00:53:22;;;;;;;16.80;13.85;;;25.30;74.70;;;;;;5053458;28;20036;-88
2022/06/10 00:55:51;;;;;;;18.52;14.52;;;25.30;74.00;;;;;;5051238;28;20033;-85
2022/06/10 00:58:40;;;;;;;16.00;13.63;;;25.40;73.70;;;;;;5052769;28;20074;-83
2022/06/10 01:01:07;;;;;;;19.25;14.23;;;25.20;74.00;;;;;;5049768;28;20371;-78
2022/06/10 01:03:33;;;;;;;16.08;14.05;;;25.00;76.00;;;;;;5051251;28;20371;-79
2022/06/10 01:06:00;;;;;;;17.38;14.88;;;25.20;74.70;;;;;;5051966;28;20021;-80
2022/06/10 01:08:26;;;;;;;17.15;14.70;;;25.30;74.10;;;;;;5052565;28;20032;-81
2022/06/10 01:11:30;;;;;;;16.85;14.98;;;25.50;73.60;;;;;;5052003;28;20028;-80
2022/06/10 01:14:27;;;;;;;20.10;15.80;;;25.50;73.80;;;;;;5053313;28;20100;-82
2022/06/10 01:17:37;;;;;;;20.08;15.20;;;25.50;74.30;;;;;;5050009;28;20396;-79
2022/06/10 01:20:11;;;;;;;17.38;12.70;;;25.60;73.70;;;;;;4986722;28;20019;-83
2022/06/10 01:23:01;;;;;;;18.85;15.23;;;25.50;73.70;;;;;;4985661;28;20030;-83
2022/06/10 01:26:13;;;;;;;16.40;14.38;;;25.40;73.70;;;;;;4992318;28;20281;-79
2022/06/10 01:29:00;;;;;;;19.38;15.10;;;25.50;73.50;;;;;;4962542;28;20040;-81
2022/06/10 01:31:58;;;;;;;18.55;14.45;;;25.60;73.60;;;;;;4990443;28;20140;-80
2022/06/10 01:34:30;;;;;;;16.58;14.77;;;25.70;73.20;;;;;;4984431;28;20080;-82
2022/06/10 01:37:28;;;;;;;16.55;13.13;;;25.80;72.70;;;;;;4992471;28;20027;-90
2022/06/10 01:40:06;;;;;;;20.33;15.82;;;25.80;73.00;;;;;;4976180;28;20121;-86
2022/06/10 01:42:52;;;;;;;17.65;15.63;;;25.80;73.00;;;;;;4991510;28;20026;-83
2022/06/10 01:45:32;;;;;;;18.20;15.88;;;25.40;73.70;;;;;;4974878;28;20042;-81
2022/06/10 01:48:32;;;;;;;19.63;16.33;;;25.40;74.20;;;;;;4994786;28;20038;-84
2022/06/10 01:51:31;;;;;;;20.33;17.40;;;25.10;75.70;;;;;;4995781;28;20052;-83
2022/06/10 01:54:04;;;;;;;18.90;15.77;;;25.00;75.80;;;;;;4990315;28;20107;-86
2022/06/10 01:56:37;;;;;;;22.63;17.17;;;25.10;75.10;;;;;;4995317;28;20457;-89
2022/06/10 01:59:27;;;;;;;21.52;17.88;;;25.20;74.40;;;;;;4995591;28;20128;-82
2022/06/10 02:02:05;;;;;;;26.00;17.98;;;25.10;75.70;;;;;;4995253;28;20030;-80
2022/06/10 02:04:35;;;;;;;20.60;17.17;;;25.10;74.80;;;;;;4996765;28;20026;-85
2022/06/10 02:07:22;;;;;;;;;;;25.40;74.80;;;;;;4994544;28;20029;-84
2022/06/10 02:09:57;;;;;;;22.48;17.80;;;25.70;73.80;;;;;;4995086;28;19909;-81
2022/06/10 02:12:37;;;;;;;19.85;16.80;;;25.70;73.60;;;;;;5011091;28;20523;-80
2022/06/10 02:15:08;;;;;;;;;;;25.70;73.00;;;;;;4994173;28;20046;-79
2022/06/10 02:17:42;;;;;;;25.02;18.92;;;25.70;73.20;;;;;;5010359;28;19917;-87
2022/06/10 02:20:13;;;;;;;25.00;19.85;;;25.70;73.00;;;;;;4992635;28;20053;-79
2022/06/10 02:22:45;;;;;;;26.30;19.08;;;25.70;73.40;;;;;;4993840;28;20488;-82
2022/06/10 02:25:16;;;;;;;32.65;21.55;;;25.40;74.50;;;;;;5010017;28;20117;-81
2022/06/10 02:27:46;;;;;;;32.70;23.90;;;25.30;74.60;;;;;;5031568;28;20041;-82
2022/06/10 02:30:19;;;;;;;30.27;20.70;;;25.50;74.50;;;;;;5050172;28;20028;-81
2022/06/10 02:32:46;;;;;;;39.15;24.08;;;25.50;74.10;;;;;;5050186;28;20025;-89
2022/06/10 02:35:14;;;;;;;28.13;21.45;;;25.30;74.20;;;;;;5049772;28;20024;-79
2022/06/10 02:38:05;;;;;;;27.83;20.52;;;25.30;75.10;;;;;;5050786;28;20098;-81
2022/06/10 02:40:36;;;;;;;29.35;21.67;;;25.40;74.90;;;;;;5051206;28;20025;-89
2022/06/10 02:43:10;;;;;;;21.65;17.83;;;25.50;74.20;;;;;;5051466;28;20029;-81
2022/06/10 02:45:42;;;;;;;25.52;19.52;;;25.50;74.30;;;;;;5046506;28;20030;-84
2022/06/10 02:48:17;;;;;;;24.40;19.00;;;25.50;74.00;;;;;;5050637;28;20495;-89
2022/06/10 02:50:45;;;;;;;25.50;19.20;;;25.60;73.60;;;;;;5051000;28;20028;-89
2022/06/10 02:53:12;;;;;;;24.80;19.70;;;25.60;73.40;;;;;;5053194;28;20033;-88
2022/06/10 02:55:38;;;;;;;25.02;18.90;;;25.70;74.00;;;;;;5055313;28;20025;-85
2022/06/10 03:01:16;;;;;;;26.58;20.70;;;25.90;73.00;;;;;;5055118;28;20028;-87
2022/06/10 03:04:01;;;;;;;23.40;18.30;;;25.90;72.70;;;;;;5055439;28;20029;-86
2022/06/10 03:06:32;;;;;;;24.10;18.58;;;25.90;72.60;;;;;;5055380;28;20363;-87
2022/06/10 03:09:06;;;;;;;24.23;17.27;;;25.80;73.00;;;;;;5053396;28;20045;-81
2022/06/10 03:11:43;;;;;;;25.38;19.80;;;25.70;73.30;;;;;;5054385;28;20036;-79
2022/06/10 03:14:21;;;;;;;20.60;17.38;;;25.70;73.70;;;;;;5054357;28;20086;-83
2022/06/10 03:17:08;;;;;;;25.45;19.80;;;25.50;73.60;;;;;;5052684;28;20021;-86
2022/06/10 03:19:56;;;;;;;20.45;17.92;;;25.40;74.70;;;;;;5053661;28;20025;-81
2022/06/10 03:23:03;;;;;;;24.88;19.25;;;25.00;75.50;;;;;;5055205;28;20025;-81
2022/06/10 03:25:39;;;;;;;29.85;20.83;;;24.90;75.60;;;;;;5038017;28;20059;-86
2022/06/10 03:28:22;;;;;;;23.88;18.13;;;24.80;75.90;;;;;;5054587;28;20079;-90
2022/06/10 03:30:54;;;;;;;26.60;19.17;;;24.60;76.70;;;;;;5050300;28;20367;-90
2022/06/10 03:33:37;;;;;;;23.05;19.33;;;24.70;77.10;;;;;;5054489;28;20025;-87
2022/06/10 03:36:11;;;;;;;22.58;17.67;;;24.80;76.40;;;;;;5054552;28;20028;-85
2022/06/10 03:38:44;;;;;;;21.85;17.90;;;24.70;76.80;;;;;;5054102;28;20094;-88
2022/06/10 03:41:24;;;;;;;17.92;15.50;;;24.60;76.50;;;;;;5053013;28;20027;-84
2022/06/10 03:43:52;;;;;;;21.70;17.13;;;24.70;76.30;;;;;;5054667;28;20021;-91
2022/06/10 03:46:20;;;;;;;21.35;17.42;;;24.70;76.10;;;;;;5052798;28;20029;-86
2022/06/10 03:48:48;;;;;;;21.10;17.45;;;24.90;75.70;;;;;;5053142;28;20044;-89
2022/06/10 03:51:16;;;;;;;18.20;15.00;;;25.10;75.30;;;;;;5039470;28;20021;-88
2022/06/10 03:53:42;;;;;;;18.10;15.23;;;25.20;75.20;;;;;;5053952;28;20355;-86
2022/06/10 03:56:11;;;;;;;19.60;15.93;;;24.80;76.20;;;;;;5049440;28;20490;-90
2022/06/10 03:58:39;;;;;;;18.63;15.98;;;24.60;76.40;;;;;;5048982;28;20033;-85
2022/06/10 04:01:06;;;;;;;17.42;14.65;;;24.70;76.40;;;;;;5052919;28;20104;-87
2022/06/10 04:03:32;;;;;;;17.15;13.70;;;24.90;75.90;;;;;;5053826;28;20380;-90
2022/06/10 04:05:58;;;;;;;18.65;14.88;;;24.70;76.70;;;;;;5053558;28;20041;-82
2022/06/10 04:08:24;;;;;;;18.88;15.68;;;24.90;76.80;;;;;;5053324;28;20033;-82
2022/06/10 04:10:50;;;;;;;17.67;14.98;;;24.80;76.20;;;;;;5054218;28;20021;-91
2022/06/10 04:13:17;;;;;;;18.08;15.13;;;24.70;76.80;;;;;;5053019;28;20127;-88
2022/06/10 04:15:44;;;;;;;16.23;14.52;;;24.70;76.90;;;;;;5054814;28;20062;-85
2022/06/10 04:18:14;;;;;;;15.75;13.07;;;24.90;76.10;;;;;;5054165;28;20047;-88
2022/06/10 04:20:40;;;;;;;14.80;13.23;;;25.20;75.00;;;;;;5053874;28;20028;-88
2022/06/10 04:23:07;;;;;;;17.00;14.43;;;25.20;74.60;;;;;;5041792;28;20031;-85
2022/06/10 04:25:35;;;;;;;15.20;13.43;;;25.30;74.80;;;;;;5052598;28;20017;-81
2022/06/10 04:28:01;;;;;;;16.67;14.40;;;25.30;74.80;;;;;;5041995;28;20039;-93
2022/06/10 04:30:37;;;;;;;17.10;14.50;;;25.50;74.50;;;;;;5054453;28;20025;-93
2022/06/10 04:33:06;;;;;;;16.35;14.55;;;25.80;74.40;;;;;;5034254;28;20033;-85
2022/06/10 04:35:42;;;;;;;15.85;13.50;;;25.90;73.80;;;;;;5050406;28;20036;-89
2022/06/10 04:38:08;;;;;;;16.40;13.65;;;25.90;74.40;;;;;;5045965;28;20036;-85
2022/06/10 04:40:36;;;;;;;16.48;14.23;;;25.80;74.50;;;;;;5040391;28;20259;-87
2022/06/10 04:43:03;;;;;;;16.48;13.57;;;26.00;74.80;;;;;;5053450;28;20029;-94
2022/06/10 04:45:33;;;;;;;15.10;12.63;;;25.90;74.40;;;;;;5053303;28;20020;-91
2022/06/10 04:47:59;;;;;;;13.43;12.00;;;25.80;74.40;;;;;;5054313;28;20356;-88
2022/06/10 04:50:29;;;;;;;14.80;12.80;;;25.80;75.10;;;;;;5057417;28;20450;-94
2022/06/10 04:52:55;;;;;;;17.35;13.50;;;26.00;74.50;;;;;;5055728;28;20028;-88
2022/06/10 04:55:22;;;;;;;11.95;10.65;;;26.00;74.00;;;;;;5056084;28;20024;-91
2022/06/10 04:57:49;;;;;;;16.98;15.02;;;26.10;74.10;;;;;;5054867;28;20028;-84
2022/06/10 05:00:20;;;;;;;13.65;11.10;;;25.90;74.70;;;;;;5054589;28;20052;-90
2022/06/10 05:02:46;;;;;;;12.77;10.13;;;25.70;74.60;;;;;;5055314;28;20116;-81
2022/06/10 05:05:11;;;;;;;12.40;11.10;;;25.50;74.80;;;;;;5056870;28;20021;-86
2022/06/10 05:07:37;;;;;;;11.40;9.43;;;25.30;75.60;;;;;;5042605;28;20094;-89
2022/06/10 05:10:04;;;;;;;12.10;10.80;;;24.90;76.70;;;;;;5045030;28;20024;-81
2022/06/10 05:12:30;;;;;;;14.23;12.73;;;24.70;77.90;;;;;;5053887;28;20393;-81
2022/06/10 05:14:56;;;;;;;12.25;10.35;;;24.80;77.30;;;;;;5055661;28;20095;-85
2022/06/10 05:17:22;;;;;;;10.63;9.20;;;25.10;76.30;;;;;;5054428;28;20107;-82
2022/06/10 05:19:48;;;;;;;11.23;9.25;;;25.30;76.40;;;;;;5055191;28;20116;-79
2022/06/10 05:22:15;;;;;;;11.32;9.30;;;25.30;76.30;;;;;;5054345;28;20029;-82
2022/06/10 05:24:42;;;;;;;10.95;8.93;;;25.10;76.60;;;;;;5067862;28;20021;-82
2022/06/10 05:27:07;;;;;;;11.68;10.23;;;25.20;76.60;;;;;;5053733;28;20024;-83
2022/06/10 05:29:36;;;;;;;11.48;10.27;;;25.40;76.60;;;;;;5046911;28;20067;-84
2022/06/10 05:32:02;;;;;;;12.65;10.57;;;25.60;75.80;;;;;;5073273;28;20107;-86
2022/06/10 05:34:46;;;;;;;14.10;10.82;;;25.60;75.40;;;;;;5073790;28;20409;-86
2022/06/10 05:37:23;;;;;;;12.95;11.30;;;25.70;75.00;;;;;;5068413;28;20025;-87
2022/06/10 05:39:51;;;;;;;12.50;10.38;;;25.80;74.40;;;;;;5055931;28;20028;-82
2022/06/10 05:42:18;;;;;;;13.05;10.95;;;25.90;75.00;;;;;;5052695;28;20082;-86
2022/06/10 05:44:47;;;;;;;13.23;11.32;;;25.70;74.60;;;;;;5052864;28;20017;-86
2022/06/10 05:47:23;;;;;;;12.38;10.70;;;25.70;74.90;;;;;;5057500;28;20028;-84
2022/06/10 05:49:51;;;;;;;12.65;11.35;;;25.90;74.90;;;;;;5053295;28;20055;-87
2022/06/10 05:52:20;;;;;;;12.30;10.98;;;26.20;74.70;;;;;;5046652;28;20108;-90
2022/06/10 05:54:47;;;;;;;11.82;9.10;;;26.40;73.30;;;;;;5034386;28;20099;-81
2022/06/10 05:57:13;;;;;;;11.30;10.10;;;26.50;73.60;;;;;;5044891;28;20110;-83
2022/06/10 05:59:40;;;;;;;13.55;10.57;;;26.30;73.70;;;;;;5036599;28;20060;-82
2022/06/10 06:02:13;;;;;;;10.70;9.60;;;26.20;74.30;;;;;;5050830;28;20044;-89
2022/06/10 06:04:39;;;;;;;12.25;10.15;;;26.30;74.10;;;;;;5051998;28;20041;-80
2022/06/10 06:07:05;;;;;;;11.18;9.15;;;26.60;73.40;;;;;;5049350;28;20033;-82
2022/06/10 06:09:33;;;;;;;10.68;9.57;;;26.70;73.00;;;;;;5051010;28;20036;-85
2022/06/10 06:11:59;;;;;;;10.60;9.50;;;27.00;72.80;;;;;;5034367;28;20384;-82
2022/06/10 06:14:27;;;;;;;12.93;9.15;;;27.20;72.40;;;;;;5040030;28;20484;-89
2022/06/10 06:16:56;;;;;;;13.20;8.98;;;27.10;72.20;;;;;;5037311;28;20061;-84
2022/06/10 06:19:23;;;;;;;10.73;9.05;;;27.20;72.10;;;;;;5047855;28;20021;-82
2022/06/10 06:21:49;;;;;;;12.40;7.78;;;27.40;71.60;;;;;;5052254;28;20071;-85
2022/06/10 06:24:15;;;;;;;10.38;8.02;;;27.20;71.90;;;;;;5052656;28;20456;-84
2022/06/10 06:26:41;;;;;;;8.88;7.43;;;27.30;72.00;;;;;;5056077;28;20032;-81
2022/06/10 06:29:10;;;;;;;9.60;7.60;;;27.10;71.80;;;;;;5055645;28;20029;-90
2022/06/10 06:31:36;;;;;;;10.25;7.85;;;27.30;71.80;;;;;;5056519;28;20418;-80
2022/06/10 06:34:02;;;;;;;9.55;8.05;;;27.10;71.60;;;;;;5055987;28;20013;-85
2022/06/10 06:36:31;;;;;;;9.40;8.23;;;27.00;72.40;;;;;;5056002;28;20028;-84
2022/06/10 06:38:57;;;;;;;9.38;8.45;;;27.30;72.40;;;;;;5053906;28;20502;-88
2022/06/10 06:41:23;;;;;;;10.80;8.07;;;27.30;72.00;;;;;;5056334;28;20025;-86
2022/06/10 06:43:50;;;;;;;10.00;8.23;;;27.10;72.20;;;;;;5056130;28;20024;-84
2022/06/10 06:46:18;;;;;;;13.25;10.23;;;27.20;71.80;;;;;;5053385;28;20493;-84
2022/06/10 06:48:44;;;;;;;10.38;7.90;;;27.30;71.90;;;;;;5054495;28;20360;-81
2022/06/10 06:51:11;;;;;;;9.30;7.68;;;27.20;72.20;;;;;;5055126;28;20075;-82
2022/06/10 06:53:37;;;;;;;10.50;8.43;;;27.20;71.80;;;;;;5055415;28;20021;-88
2022/06/10 06:56:04;;;;;;;9.07;8.10;;;27.20;71.50;;;;;;5055163;28;20029;-79
2022/06/10 06:58:30;;;;;;;11.55;9.82;;;27.00;73.00;;;;;;5053250;28;20464;-80
2022/06/10 07:00:56;;;;;;;10.68;8.70;;;26.90;73.80;;;;;;5054116;28;20135;-81
2022/06/10 07:03:22;;;;;;;11.05;8.40;;;27.10;73.40;;;;;;5054885;28;20021;-79
2022/06/10 07:05:49;;;;;;;9.18;7.18;;;27.10;73.20;;;;;;5054345;28;20116;-79
2022/06/10 07:08:15;;;;;;;11.27;8.40;;;27.10;72.00;;;;;;5055596;28;20068;-80
2022/06/10 07:10:41;;;;;;;8.88;7.97;;;27.10;72.20;;;;;;5055236;28;20013;-90
2022/06/10 07:13:07;;;;;;;9.18;8.27;;;27.20;72.90;;;;;;5054182;28;20032;-79
2022/06/10 07:15:33;;;;;;;8.75;7.82;;;27.40;72.60;;;;;;5055562;28;20021;-77
2022/06/10 07:18:00;;;;;;;11.80;8.10;;;27.50;72.40;;;;;;5055662;28;20452;-77
2022/06/10 07:20:31;;;;;;;10.82;8.10;;;27.50;71.50;;;;;;5055508;28;20021;-87
2022/06/10 07:22:59;;;;;;;9.00;7.50;;;27.80;71.40;;;;;;5054084;28;20017;-79
2022/06/10 07:25:26;;;;;;;9.18;7.70;;;28.20;71.10;;;;;;5055461;28;20031;-75
2022/06/10 07:27:55;;;;;;;9.80;8.18;;;28.40;70.50;;;;;;5054462;28;20039;-89
2022/06/10 07:30:25;;;;;;;11.20;7.77;;;28.40;70.00;;;;;;5053893;28;20017;-78
2022/06/10 07:32:50;;;;;;;9.55;7.18;;;28.30;69.80;;;;;;5053861;28;20079;-77
2022/06/10 07:35:18;;;;;;;11.52;7.35;;;28.10;70.60;;;;;;5055472;28;20013;-77
2022/06/10 07:37:45;;;;;;;9.13;7.55;;;28.30;71.00;;;;;;5055207;28;20104;-78
2022/06/10 07:41:56;;;;;;;8.35;6.97;;;28.70;70.70;;;;;;5053678;28;20051;-77
2022/06/10 07:43:01;;;;;;;10.10;8.30;;;28.90;70.50;;;;;;5054727;28;20029;-76
2022/06/10 07:45:28;;;;;;;10.45;7.85;;;29.20;70.30;;;;;;5053883;28;20017;-79
2022/06/10 07:47:54;;;;;;;7.75;6.72;;;28.90;70.10;;;;;;5055780;28;20041;-77
2022/06/10 07:50:21;;;;;;;8.82;6.93;;;29.00;69.80;;;;;;5057147;28;20026;-77
2022/06/10 07:52:48;;;;;;;8.25;7.35;;;28.90;69.80;;;;;;5057053;28;20020;-86
2022/06/10 07:55:13;;;;;;;10.50;7.35;;;28.70;69.20;;;;;;5057557;28;20019;-86
2022/06/10 07:57:39;;;;;;;11.60;7.93;;;28.50;70.50;;;;;;5057141;28;20016;-87
2022/06/10 08:00:06;;;;;;;14.05;7.80;;;28.20;70.20;;;;;;5075395;28;20023;-84
2022/06/10 08:02:31;;;;;;;8.65;7.30;;;28.40;71.30;;;;;;5057428;28;20021;-80
2022/06/10 08:04:57;;;;;;;10.93;7.75;;;28.20;72.00;;;;;;5075586;28;20469;-92
2022/06/10 08:07:23;;;;;;;11.63;8.52;;;27.90;71.90;;;;;;5057254;28;20074;-88
2022/06/10 08:09:48;;;;;;;10.18;8.30;;;27.90;71.40;;;;;;5057051;28;20024;-86
2022/06/10 08:12:14;;;;;;;12.77;7.85;;;28.20;71.70;;;;;;5057909;28;20031;-89
2022/06/10 08:14:40;;;;;;;9.38;7.60;;;28.20;71.40;;;;;;5057626;28;20458;-83
2022/06/10 08:17:07;;;;;;;9.95;7.57;;;28.40;71.50;;;;;;5074858;28;20027;-84
2022/06/10 08:19:33;;;;;;;8.65;7.75;;;28.30;71.00;;;;;;5057407;28;20028;-87
2022/06/10 08:24:43;;;;;;;9.45;7.65;;;28.70;70.80;;;;;;5075061;28;20486;-85
2022/06/10 08:27:09;;;;;;;9.68;8.48;;;28.90;69.40;;;;;;5056925;28;20016;-83
2022/06/10 08:29:34;;;;;;;9.23;8.10;;;28.90;69.50;;;;;;5056446;28;20089;-79
2022/06/10 08:32:03;;;;;;;10.20;7.75;;;29.00;69.70;;;;;;5056899;28;20585;-84
2022/06/10 08:34:29;;;;;;;9.13;7.80;;;29.00;70.20;;;;;;5056756;28;20032;-79
2022/06/10 08:36:54;;;;;;;10.65;7.65;;;29.10;70.80;;;;;;5074748;28;20024;-85
2022/06/10 08:39:20;;;;;;;9.20;7.43;;;29.00;69.40;;;;;;5056796;28;20109;-78
2022/06/10 08:41:58;;;;;;;8.07;7.28;;;29.10;71.30;;;;;;5056595;28;20021;-92
2022/06/10 08:44:40;;;;;;;8.43;6.72;;;29.20;70.10;;;;;;5056681;28;20024;-86
2022/06/10 08:47:23;;;;;;;8.00;6.93;;;29.10;70.30;;;;;;5074049;28;20081;-86
2022/06/10 08:50:06;;;;;;;8.05;7.25;;;29.40;69.60;;;;;;5056554;28;20045;-90
2022/06/10 08:53:06;;;;;;;8.07;6.95;;;29.60;69.40;;;;;;5056682;28;20159;-94
2022/06/10 08:55:41;;;;;;;10.07;6.97;;;29.80;69.40;;;;;;5057804;28;20111;-84
2022/06/10 08:58:32;;;;;;;8.95;6.95;;;29.90;69.90;;;;;;5074531;28;20019;-85
2022/06/10 09:01:07;;;;;;;11.98;6.95;;;30.10;69.00;;;;;;5057021;28;20017;-85
2022/06/10 09:03:35;;;;;;;9.50;7.43;;;30.10;69.20;;;;;;5056463;28;20025;-83
2022/06/10 09:06:06;;;;;;;9.45;6.53;;;30.10;68.60;;;;;;5056447;28;20020;-84
2022/06/10 09:08:35;;;;;;;8.75;6.55;;;29.90;68.50;;;;;;5073701;28;20436;-82
2022/06/10 09:11:12;;;;;;;8.85;6.63;;;29.70;69.80;;;;;;5056035;28;20013;-79
2022/06/10 09:13:39;;;;;;;11.13;6.88;;;29.90;69.10;;;;;;5056297;28;20028;-83
2022/06/10 09:16:05;;;;;;;7.50;6.07;;;30.10;69.00;;;;;;5055674;28;20354;-83
2022/06/10 09:18:39;;;;;;;9.00;6.80;;;30.30;67.70;;;;;;5055774;28;20482;-83
2022/06/10 09:21:23;;;;;;;9.00;6.53;;;30.50;68.00;;;;;;5055747;28;20104;-87
2022/06/10 09:23:49;;;;;;;7.82;6.68;;;30.70;69.00;;;;;;5055823;28;20115;-88
2022/06/10 09:26:28;;;;;;;9.95;6.75;;;31.00;68.10;;;;;;5073764;28;20095;-81
2022/06/10 09:28:56;;;;;;;10.15;6.60;;;31.30;67.30;;;;;;5056012;28;20028;-80
2022/06/10 09:31:42;;;;;;;8.40;6.20;;;31.50;67.20;;;;;;5055713;28;20137;-85
2022/06/10 09:34:35;;;;;;;10.00;6.22;;;31.80;67.30;;;;;;5073421;28;20032;-81
2022/06/10 09:37:17;;;;;;;8.25;6.03;;;31.70;66.60;;;;;;4976007;28;20065;-87
2022/06/10 09:42:37;;;;;;;7.35;6.25;;;31.80;67.00;;;;;;4992717;28;20073;-88
2022/06/10 09:45:30;;;;;;;10.90;6.95;;;31.90;66.20;;;;;;4975849;28;20030;-90
2022/06/10 09:48:22;;;;;;;8.02;6.13;;;32.10;65.70;;;;;;4975800;28;20074;-87
2022/06/10 09:51:07;;;;;;;8.45;5.90;;;32.10;65.00;;;;;;4992715;28;20381;-81
2022/06/10 09:53:58;;;;;;;8.45;5.85;;;32.10;66.40;;;;;;4992087;28;20097;-88
2022/06/10 09:56:59;;;;;;;6.03;5.43;;;32.30;66.50;;;;;;4976054;28;20458;-83
2022/06/10 09:59:38;;;;;;;8.15;6.22;;;32.20;65.40;;;;;;4953989;29;20035;-80
2022/06/10 10:02:13;;;;;;;7.75;5.70;;;32.20;66.10;;;;;;4953283;29;20423;-85
2022/06/10 10:04:51;;;;;;;7.55;5.53;;;32.20;65.10;;;;;;4937305;29;20070;-92
2022/06/10 10:07:34;;;;;;;9.68;5.43;;;32.10;65.90;;;;;;4937073;29;20066;-87
2022/06/10 10:10:29;;;;;;;8.88;5.68;;;32.10;66.00;;;;;;4937107;29;20028;-87
2022/06/10 10:13:29;;;;;;;9.15;6.00;;;31.80;65.10;;;;;;4938467;28;20028;-88
2022/06/10 10:15:57;;;;;;;10.95;5.93;;;31.60;66.40;;;;;;5011650;28;20090;-87
2022/06/10 10:18:41;;;;;;;11.07;5.85;;;31.80;66.70;;;;;;4994980;28;20022;-81
2022/06/10 10:21:09;;;;;;;7.55;5.93;;;32.00;66.50;;;;;;4995140;28;20137;-86
2022/06/10 10:23:43;;;;;;;9.75;5.60;;;32.40;66.70;;;;;;5011270;28;20030;-82
2022/06/10 10:26:44;;;;;;;12.52;6.18;;;32.60;65.00;;;;;;5011043;28;20064;-88
2022/06/10 10:29:19;;;;;;;7.82;5.45;;;32.80;64.60;;;;;;4972209;28;20047;-80
2022/06/10 10:32:02;;;;;;;8.88;5.30;;;32.90;64.40;;;;;;4972358;28;20048;-84
2022/06/10 10:34:36;;;;;;;6.78;5.63;;;32.70;64.90;;;;;;4971877;28;20464;-81
2022/06/10 10:37:19;;;;;;;6.80;5.47;;;32.60;65.40;;;;;;4974934;28;20031;-80
2022/06/10 10:39:54;;;;;;;9.10;5.57;;;32.80;65.80;;;;;;4975254;28;20076;-87
2022/06/10 10:42:29;;;;;;;7.45;5.43;;;32.40;64.20;;;;;;4975550;28;20023;-90
2022/06/10 10:45:00;;;;;;;5.68;5.07;;;32.20;64.50;;;;;;4975314;28;20047;-87
2022/06/10 10:47:27;;;;;;;7.90;5.30;;;32.50;65.60;;;;;;4991450;28;20523;-85
2022/06/10 10:50:15;;;;;;;7.07;5.20;;;32.80;65.30;;;;;;4976154;28;20426;-82
2022/06/10 10:52:44;;;;;;;9.90;5.68;;;33.10;64.40;;;;;;4975258;28;20037;-89
2022/06/10 10:55:13;;;;;;;7.65;5.50;;;33.40;63.80;;;;;;4975518;28;20105;-83
2022/06/10 10:57:43;;;;;;;6.90;5.15;;;33.00;63.60;;;;;;4991687;28;20117;-88
2022/06/10 11:00:14;;;;;;;9.73;5.80;;;33.20;64.30;;;;;;4975309;28;20034;-83
2022/06/10 11:02:48;;;;;;;8.07;5.47;;;33.30;64.10;;;;;;5000069;28;20035;-84
2022/06/10 11:05:35;;;;;;;8.15;5.40;;;33.20;64.50;;;;;;5055180;28;20082;-85
2022/06/10 11:08:21;;;;;;;5.93;5.32;;;33.00;63.30;;;;;;5054919;28;20043;-84
2022/06/10 11:10:55;;;;;;;7.53;5.30;;;32.80;63.80;;;;;;5054954;28;20035;-88
2022/06/10 11:13:45;;;;;;;7.35;5.03;;;32.90;63.70;;;;;;5075951;28;20100;-86
2022/06/10 11:16:17;;;;;;;7.30;5.13;;;32.70;64.00;;;;;;5058617;28;20411;-89
2022/06/10 11:18:46;;;;;;;7.55;4.82;;;31.70;61.90;;;;;;5076254;28;20505;-88
2022/06/10 11:21:12;;;;;;;7.75;5.10;;;31.40;64.60;;;;;;5076440;28;20103;-86
2022/06/10 11:23:50;;;;;;;8.65;5.10;;;31.90;63.70;;;;;;5058012;28;20028;-84
2022/06/10 11:26:18;;;;;;;6.03;4.72;;;32.60;63.30;;;;;;5058254;28;20086;-83
2022/06/10 11:28:46;;;;;;;6.57;4.53;;;33.00;60.10;;;;;;5059078;28;20421;-82
2022/06/10 11:31:49;;;;;;;14.45;5.20;;;33.20;59.10;;;;;;5058776;28;20085;-83
2022/06/10 11:34:39;;;;;;;8.82;4.82;;;33.50;59.20;;;;;;4994677;28;20101;-85
2022/06/10 11:37:38;;;;;;;5.47;4.88;;;33.50;60.50;;;;;;4989378;28;20030;-81
2022/06/10 11:40:14;;;;;;;6.60;4.70;;;33.60;60.70;;;;;;4978487;28;20029;-81
2022/06/10 11:42:52;;;;;;;8.30;5.00;;;34.00;60.60;;;;;;4978096;28;20061;-79
2022/06/10 11:45:45;;;;;;;8.18;4.63;;;34.00;60.40;;;;;;4994158;28;20085;-81
2022/06/10 11:48:50;;;;;;;5.63;4.38;;;34.20;60.20;;;;;;4977214;28;20042;-80
2022/06/10 11:51:35;;;;;;;7.00;4.00;;;34.00;57.30;;;;;;4939102;29;20075;-80
2022/06/10 11:54:12;;;;;;;9.38;4.88;;;34.00;58.40;;;;;;4955191;29;20063;-81
2022/06/10 11:59:55;;;;;;;6.90;5.45;;;33.70;60.10;;;;;;4954938;29;20054;-83
2022/06/10 12:02:30;;;;;;;10.82;5.45;;;33.70;60.80;;;;;;4955081;29;20458;-84
2022/06/10 12:05:21;;;;;;;7.00;5.10;;;33.70;60.00;;;;;;4938979;29;20049;-81
2022/06/10 12:07:57;;;;;;;6.22;5.03;;;33.70;60.00;;;;;;4973858;28;20096;-81
2022/06/10 12:10:27;;;;;;;7.45;4.90;;;33.70;60.20;;;;;;5013628;28;20401;-86
2022/06/10 12:12:55;;;;;;;6.30;4.85;;;33.90;60.50;;;;;;4996819;28;20018;-80
2022/06/10 12:15:41;;;;;;;6.30;4.93;;;34.00;59.80;;;;;;4996605;28;20519;-83
2022/06/10 12:18:10;;;;;;;7.53;4.75;;;33.90;59.80;;;;;;4996773;28;20068;-82
2022/06/10 12:20:44;;;;;;;6.95;5.05;;;33.80;58.70;;;;;;5012956;28;20017;-85
2022/06/10 12:23:14;;;;;;;7.47;4.50;;;33.70;59.70;;;;;;4996528;28;20076;-80
2022/06/10 12:25:59;;;;;;;5.57;4.57;;;33.70;58.40;;;;;;4996631;28;20030;-80
2022/06/10 12:28:46;;;;;;;6.18;4.32;;;33.70;58.60;;;;;;5035694;28;20033;-84
2022/06/10 12:31:55;;;;;;;9.52;4.60;;;33.40;59.20;;;;;;5056456;28;20025;-83
2022/06/10 12:34:36;;;;;;;7.25;4.22;;;33.50;59.70;;;;;;5056520;28;20375;-79
2022/06/10 12:37:06;;;;;;;7.18;4.70;;;33.70;60.20;;;;;;5074481;28;20021;-87
2022/06/10 12:39:48;;;;;;;7.15;4.60;;;33.50;57.50;;;;;;5056379;28;20344;-78
2022/06/10 12:42:19;;;;;;;5.45;4.50;;;33.30;59.10;;;;;;5056672;28;20058;-83
2022/06/10 12:44:50;;;;;;;7.47;4.70;;;33.50;58.40;;;;;;5056230;28;20017;-88
2022/06/10 12:47:23;;;;;;;8.35;4.10;;;33.80;58.00;;;;;;5056346;28;20024;-86
2022/06/10 12:49:59;;;;;;;8.90;4.35;;;33.80;57.10;;;;;;5055798;28;20044;-80
2022/06/10 12:52:41;;;;;;;5.70;4.30;;;33.90;57.90;;;;;;5073628;28;20041;-80
2022/06/10 12:55:53;;;;;;;7.28;4.20;;;34.20;57.40;;;;;;5073902;28;20447;-85
2022/06/10 12:58:37;;;;;;;5.18;3.90;;;33.80;56.00;;;;;;4992709;28;20153;-83
2022/06/10 13:01:20;;;;;;;8.05;4.32;;;33.60;55.70;;;;;;4992448;28;20041;-78
2022/06/10 13:03:48;;;;;;;6.57;3.90;;;33.30;56.00;;;;;;4976192;28;20037;-78
2022/06/10 13:06:43;;;;;;;6.20;4.00;;;33.20;57.30;;;;;;4993200;28;20045;-86
2022/06/10 13:09:23;;;;;;;5.25;3.95;;;33.30;56.70;;;;;;4976098;28;20470;-84
2022/06/10 13:11:54;;;;;;;8.45;4.32;;;33.00;56.40;;;;;;4976251;28;20036;-84
2022/06/10 13:14:25;;;;;;;8.20;4.57;;;33.40;57.60;;;;;;4992266;28;20053;-82
2022/06/10 13:17:06;;;;;;;4.88;4.13;;;33.70;57.20;;;;;;4992517;28;20118;-87
2022/06/10 13:19:56;;;;;;;7.30;4.75;;;33.70;56.20;;;;;;4992564;28;20039;-82
2022/06/10 13:22:22;;;;;;;7.22;4.25;;;33.40;55.70;;;;;;4992894;28;20426;-84
2022/06/10 13:24:54;;;;;;;5.43;4.20;;;33.20;56.50;;;;;;4992299;28;20515;-84